• Join FlightAware (Why Join?)
  • Login
  • US Flag 
12:59PM EDT


 

Airport Tracker/Info


-or-


 

Live Flight TrackerFlight Track Log ✈ N849WM ✈ 25-Jun-2013 ✈ KTLH - KCRG

Flight Track Log - Related Links

Times and Time Zones

All times are in EDT time to prevent confusion due to time zone crossing. See the N849WM flight status page for this flight to view local times or setup timezone preferences in your user account.

Time Position Orientation Groundspeed Altitude Reporting Facility
EDT Latitude Longitude Course Direction KTS MPH feet Rate Location/Type
09:39AM 30.4633 -84.0935 69° East  Level FlightAware Approximate
09:40AM 30.4661 -84.0432 86° East  Level FlightAware Approximate
09:41AM 30.4789 -83.9943 70° East  Level FlightAware Approximate
09:42AM 30.4938 -83.9468 70° East  Level FlightAware Approximate
09:43AM 30.5086 -83.8994 70° East  Level FlightAware Approximate
09:44AM 30.5234 -83.8519 70° East  Level FlightAware Approximate
09:45AM 30.5382 -83.8044 70° East  Level FlightAware Approximate
09:45AM 30.5319 -83.8742 71° East 170 196 6,900  Level Jacksonville Center
09:46AM 30.5492 -83.7563 95° East  Level FlightAware Approximate
09:46AM 30.5408 -83.8164 80° East 170 196 6,900  Level Jacksonville Center
09:47AM 30.5454 -83.7060 95° East  Level FlightAware Approximate
09:47AM 30.5475 -83.7633 82° East 173 199 6,900  Level Jacksonville Center
09:48AM 30.5415 -83.6557 95° East  Level FlightAware Approximate
09:48AM 30.5458 -83.7078 92° East 172 198 6,900  Level Jacksonville Center
09:49AM 30.5376 -83.6054 95° East  Level FlightAware Approximate
09:49AM 30.5442 -83.6500 92° East 172 198 6,900  Level Jacksonville Center
09:50AM 30.5337 -83.5551 95° East  Level FlightAware Approximate
09:50AM 30.5444 -83.5969 90° East 170 196 6,900  Level Jacksonville Center
09:51AM 30.5406 -83.5389 94° East 171 197 6,900  Level Jacksonville Center
09:52AM 30.5408 -83.4883 90° East 170 196 6,900  Level Jacksonville Center
09:53AM 30.5389 -83.4281 92° East 170 196 6,900  Level Jacksonville Center
09:54AM 30.5350 -83.3772 95° East 170 196 6,900  Level Jacksonville Center
09:55AM 30.5353 -83.3194 90° East 170 196 6,900  Level Jacksonville Center
09:57AM 30.5333 -83.2592 92° East 184 212 6,900  Level Jacksonville Center
09:58AM 30.5292 -83.2158 96° East 189 217 6,900  Level Jacksonville Center
09:59AM 30.5272 -83.1506 92° East 177 204 6,900  Level Jacksonville Center
10:00AM 30.5231 -83.0975 95° East 172 198 6,900  Level Jacksonville Center
10:01AM 30.5233 -83.0422 90° East 167 192 6,900  Level Jacksonville Center
10:02AM 30.5211 -82.9892 93° East 167 192 6,900  Level Jacksonville Center
10:03AM 30.5192 -82.9361 92° East 162 186 6,900  Level Jacksonville Center
10:04AM 30.5169 -82.8781 93° East 162 186 6,900  Level Jacksonville Center
10:05AM 30.5150 -82.8250 92° East 162 186 6,900  Level Jacksonville Center
10:06AM 30.5108 -82.7697 95° East 162 186 6,900  Level Jacksonville Center
10:07AM 30.5086 -82.7167 93° East 162 186 6,900  Level Jacksonville Center
10:08AM 30.5064 -82.6586 93° East 162 186 6,900  Level Jacksonville Center
10:09AM 30.5042 -82.6033 93° East 162 186 6,900  Level Jacksonville Center
10:09AM 30.5019 -82.5767 96° East 175 201 6,900  Level Jacksonville Center
10:10AM 30.4956 -82.5117 96° East 173 199 6,900  Level Jacksonville Center
10:11AM 30.4872 -82.4561 100° East 169 194 6,900  Level Jacksonville Center
10:12AM 30.4786 -82.3961 99° East 169 194 6,900  Level Jacksonville Center
10:13AM 30.4719 -82.3503 100° East 169 194 6,900 -120 Level Jacksonville Center
10:14AM 30.4614 -82.2925 102° East 173 199 6,700 -360 Descending Jacksonville Center
10:15AM 30.4528 -82.2347 100° East 184 212 6,200 -480 Descending Jacksonville Center
10:16AM 30.4442 -82.1744 99° East 189 217 5,800 -480 Descending Jacksonville Center
10:17AM 30.4333 -82.1144 102° East 187 215 5,300 -540 Descending Jacksonville Center
10:19AM 30.4225 -82.0422 100° East 183 211 4,700 -540 Descending Jacksonville Center
10:19AM 30.4117 -81.9942 105° East 185 213 4,300 -480 Descending Jacksonville Center
10:20AM 30.4028 -81.9364 100° East 185 213 3,900 -240 Descending Jacksonville Center
10:21AM 30.3961 -81.8811 98° East 175 201 3,900  Level Jacksonville Center
10:22AM 30.3872 -81.8208 100° East 171 197 3,900  Level Jacksonville Center
10:23AM 30.3764 -81.7681 103° East 173 199 3,900 -240 Level Jacksonville Center
10:24AM 30.3656 -81.7106 102° East 187 215 3,500 -540 Descending Jacksonville Center
10:25AM 30.3586 -81.6528 98° East 188 216 2,900 -660 Descending Jacksonville Center
10:26AM 30.3517 -81.5903 97° East 182 209 2,200 -780 Descending Jacksonville Center
10:27AM 30.3469 -81.5375 96° East 166 191 1,400 -840 Descending Jacksonville Center
10:28AM 30.3550 -81.4986 76° East 105 121 500 -600 Descending Jacksonville Center
10:30AM 30.3383 -81.5086 207° Southwest 92 106 200 -300 Descending Jacksonville Center